Time;durP1;ratioP1;P1;durP2;ratioP2;P2;SDS_P1;SDS_P2;PMS_P1;PMS_P2;Temp;Humidity;BMP_temperature;BMP_pressure;BME280_temperature;BME280_humidity;BME280_pressure;Samples;Min_cycle;Max_cycle;Signal;HPM_P1;HPM_P2
2022/05/16 00:02:09;;;;;;;7.28;5.57;;;18.40;77.50;;;;;;4992931;28;20053;-61
2022/05/16 00:04:43;;;;;;;8.93;5.43;;;18.40;77.80;;;;;;4990681;28;20026;-61
2022/05/16 00:07:09;;;;;;;11.05;5.50;;;18.20;77.80;;;;;;4992239;28;20562;-61
2022/05/16 00:09:35;;;;;;;8.30;5.38;;;18.10;77.70;;;;;;4992827;28;20042;-60
2022/05/16 00:12:01;;;;;;;9.93;5.43;;;18.20;76.90;;;;;;4991850;28;20034;-60
2022/05/16 00:14:27;;;;;;;8.55;5.75;;;18.10;77.60;;;;;;4992490;28;20033;-59
2022/05/16 00:16:52;;;;;;;10.43;4.75;;;18.10;74.70;;;;;;4992767;28;20169;-61
2022/05/16 00:19:18;;;;;;;7.10;5.07;;;17.90;75.20;;;;;;4991573;28;20070;-62
2022/05/16 00:21:44;;;;;;;7.93;5.05;;;17.80;75.20;;;;;;4974601;28;20073;-61
2022/05/16 00:24:09;;;;;;;10.80;5.03;;;17.80;74.60;;;;;;4992720;28;20085;-60
2022/05/16 00:26:35;;;;;;;8.32;5.07;;;17.60;75.70;;;;;;4990985;28;20038;-60
2022/05/16 00:29:01;;;;;;;10.88;5.70;;;17.60;76.40;;;;;;4992261;28;20034;-60
2022/05/16 00:31:26;;;;;;;8.55;5.53;;;17.50;76.50;;;;;;4995979;28;20117;-61
2022/05/16 00:33:52;;;;;;;9.07;5.88;;;17.50;76.70;;;;;;4994603;28;20385;-59
2022/05/16 00:36:18;;;;;;;8.45;4.85;;;17.50;76.70;;;;;;4995977;28;20439;-59
2022/05/16 00:38:43;;;;;;;8.75;5.10;;;17.50;76.80;;;;;;4986136;28;20030;-60
2022/05/16 00:41:09;;;;;;;9.63;6.50;;;17.60;76.40;;;;;;4994857;28;20088;-60
2022/05/16 00:44:07;;;;;;;10.50;6.95;;;17.50;76.20;;;;;;4995268;28;20041;-61
2022/05/16 00:46:33;;;;;;;11.75;7.00;;;17.50;77.30;;;;;;4952382;28;20108;-61
2022/05/16 00:49:01;;;;;;;9.73;5.57;;;17.40;77.80;;;;;;4996487;28;20514;-61
2022/05/16 00:51:33;;;;;;;6.40;5.45;;;17.40;78.50;;;;;;4995473;28;20022;-60
2022/05/16 00:54:32;;;;;;;9.35;5.38;;;17.10;78.50;;;;;;4993514;28;20489;-60
2022/05/16 00:57:03;;;;;;;8.63;5.32;;;17.00;79.20;;;;;;4964602;28;20050;-58
2022/05/16 01:00:00;;;;;;;11.60;6.70;;;16.90;78.80;;;;;;4994735;28;20062;-60
2022/05/16 01:05:14;;;;;;;9.15;7.15;;;16.70;77.90;;;;;;4994383;28;20037;-60
2022/05/16 01:07:43;;;;;;;8.05;5.97;;;16.80;77.80;;;;;;4995611;28;20037;-60
2022/05/16 01:10:18;;;;;;;9.32;5.75;;;16.80;77.90;;;;;;4990209;28;20038;-60
2022/05/16 01:12:48;;;;;;;9.35;5.78;;;16.90;77.60;;;;;;4994996;28;20519;-60
2022/05/16 01:15:25;;;;;;;7.65;5.47;;;17.00;77.40;;;;;;4995237;28;20027;-59
2022/05/16 01:17:53;;;;;;;9.05;5.18;;;16.80;78.70;;;;;;4996421;28;20026;-60
2022/05/16 01:20:18;;;;;;;7.32;4.90;;;16.80;79.50;;;;;;4996258;28;20046;-61
2022/05/16 01:22:51;;;;;;;9.32;5.63;;;16.80;80.00;;;;;;4976731;28;20031;-59
2022/05/16 01:25:35;;;;;;;9.10;5.20;;;16.80;80.10;;;;;;4995342;28;20062;-61
2022/05/16 01:28:04;;;;;;;8.55;4.85;;;16.80;80.30;;;;;;4993767;28;20030;-59
2022/05/16 01:30:51;;;;;;;10.45;5.20;;;16.80;80.30;;;;;;4995206;28;20030;-59
2022/05/16 01:33:26;;;;;;;10.07;6.22;;;16.80;80.50;;;;;;4988714;28;20486;-59
2022/05/16 01:35:52;;;;;;;12.07;8.95;;;16.80;80.70;;;;;;4995935;28;20045;-60
2022/05/16 01:38:19;;;;;;;14.90;8.95;;;16.80;80.60;;;;;;4998077;28;20473;-60
2022/05/16 01:41:16;;;;;;;9.05;6.93;;;16.80;80.30;;;;;;4994712;28;20422;-60
2022/05/16 01:43:45;;;;;;;9.02;6.65;;;16.70;79.30;;;;;;4979849;28;20034;-60
2022/05/16 01:46:13;;;;;;;11.30;6.65;;;16.70;79.90;;;;;;4994926;28;20106;-61
2022/05/16 01:48:41;;;;;;;10.93;5.63;;;16.70;79.80;;;;;;4994527;28;20030;-61
2022/05/16 01:51:11;;;;;;;7.97;5.68;;;16.80;79.40;;;;;;4993295;28;20169;-60
2022/05/16 01:53:39;;;;;;;11.65;6.10;;;16.70;79.40;;;;;;4994731;28;20022;-61
2022/05/16 01:56:05;;;;;;;9.48;7.25;;;16.70;79.50;;;;;;4993485;28;20041;-60
2022/05/16 01:58:31;;;;;;;12.70;8.43;;;16.70;79.50;;;;;;4994342;28;20038;-60
2022/05/16 02:00:56;;;;;;;14.55;10.00;;;16.70;79.70;;;;;;4994826;28;20030;-60
2022/05/16 02:03:22;;;;;;;12.25;7.32;;;16.70;79.80;;;;;;4994458;28;20042;-58
2022/05/16 02:05:48;;;;;;;11.55;7.40;;;16.60;80.30;;;;;;4992376;28;20030;-60
2022/05/16 02:08:15;;;;;;;8.95;7.25;;;16.70;80.80;;;;;;4994244;28;20121;-60
2022/05/16 02:10:41;;;;;;;11.25;6.68;;;16.70;80.50;;;;;;4994463;28;20038;-60
2022/05/16 02:13:08;;;;;;;10.82;6.70;;;16.60;79.70;;;;;;4995027;28;20089;-60
2022/05/16 02:15:35;;;;;;;9.25;6.30;;;16.50;79.60;;;;;;4993505;28;20069;-60
2022/05/16 02:18:02;;;;;;;8.05;5.90;;;16.50;79.40;;;;;;4994847;28;20042;-60
2022/05/16 02:20:28;;;;;;;6.53;4.55;;;16.40;78.90;;;;;;4994934;28;20031;-59
2022/05/16 02:25:47;;;;;;;7.70;4.80;;;16.10;77.40;;;;;;4994193;28;20042;-59
2022/05/16 02:28:14;;;;;;;8.45;4.95;;;16.00;77.70;;;;;;4994699;28;20034;-63
2022/05/16 02:30:44;;;;;;;7.28;4.93;;;16.10;77.60;;;;;;4992067;28;20034;-62
2022/05/16 02:33:11;;;;;;;6.57;4.82;;;16.10;76.20;;;;;;4994512;28;20027;-63
2022/05/16 02:35:36;;;;;;;9.05;4.88;;;16.00;75.10;;;;;;4994148;28;20034;-63
2022/05/16 02:38:03;;;;;;;7.03;4.72;;;16.00;75.20;;;;;;4993824;28;20062;-63
2022/05/16 02:40:30;;;;;;;6.30;4.55;;;16.00;74.90;;;;;;4993424;28;20031;-60
2022/05/16 02:42:56;;;;;;;7.00;5.05;;;16.00;74.60;;;;;;4992356;28;20037;-59
2022/05/16 02:45:23;;;;;;;8.02;4.93;;;16.00;74.30;;;;;;4992853;28;20121;-60
2022/05/16 02:47:49;;;;;;;8.25;6.43;;;15.90;74.10;;;;;;4992661;28;20036;-59
2022/05/16 02:50:15;;;;;;;9.15;5.68;;;15.90;73.90;;;;;;4992846;28;20084;-60
2022/05/16 02:52:41;;;;;;;7.05;4.53;;;15.80;74.30;;;;;;4992774;28;20038;-60
2022/05/16 02:55:07;;;;;;;7.68;5.05;;;15.80;74.30;;;;;;4994189;28;20046;-60
2022/05/16 02:57:33;;;;;;;8.40;4.60;;;15.80;74.10;;;;;;4993837;28;20096;-60
2022/05/16 03:00:00;;;;;;;7.32;4.65;;;15.70;74.10;;;;;;4994013;28;20118;-60
2022/05/16 03:02:26;;;;;;;8.35;4.85;;;15.70;74.50;;;;;;4993879;28;20027;-60
2022/05/16 03:04:52;;;;;;;9.93;4.60;;;15.70;74.70;;;;;;4991392;28;20042;-59
2022/05/16 03:07:18;;;;;;;4.25;3.78;;;15.80;74.30;;;;;;4993155;28;20038;-61
2022/05/16 03:09:44;;;;;;;7.57;4.95;;;15.80;74.30;;;;;;4992841;28;20045;-60
2022/05/16 03:12:10;;;;;;;7.28;4.78;;;15.80;74.30;;;;;;4992611;28;20030;-60
2022/05/16 03:14:36;;;;;;;6.63;4.50;;;15.90;74.40;;;;;;4993143;28;20026;-59
2022/05/16 03:17:03;;;;;;;6.15;4.57;;;16.00;74.20;;;;;;4991713;28;20034;-59
2022/05/16 03:19:30;;;;;;;6.65;5.03;;;16.00;74.20;;;;;;4993723;28;20088;-58
2022/05/16 03:21:56;;;;;;;6.57;4.63;;;15.90;74.20;;;;;;4994068;28;20040;-60
2022/05/16 03:24:22;;;;;;;7.75;4.95;;;15.90;74.90;;;;;;4993733;28;20109;-59
2022/05/16 03:26:48;;;;;;;7.68;4.68;;;15.90;74.70;;;;;;4991363;28;20114;-60
2022/05/16 03:29:14;;;;;;;6.15;4.70;;;15.90;74.70;;;;;;4992286;28;20031;-60
2022/05/16 03:31:41;;;;;;;11.07;5.00;;;15.90;75.00;;;;;;4993343;28;20030;-60
2022/05/16 03:34:09;;;;;;;7.63;4.78;;;15.90;75.40;;;;;;4992693;28;20506;-60
2022/05/16 03:36:35;;;;;;;5.80;4.10;;;16.00;75.80;;;;;;4992584;28;20038;-61
2022/05/16 03:41:45;;;;;;;6.43;4.67;;;16.00;75.80;;;;;;4973854;28;20030;-59
2022/05/16 03:44:10;;;;;;;6.95;4.82;;;16.00;75.50;;;;;;4992207;28;20762;-60
2022/05/16 03:46:37;;;;;;;8.45;4.80;;;15.90;75.50;;;;;;4989400;28;20588;-60
2022/05/16 03:49:04;;;;;;;7.70;5.43;;;16.00;75.60;;;;;;4992771;28;20046;-60
2022/05/16 03:51:29;;;;;;;11.35;5.43;;;16.00;75.20;;;;;;4993056;28;20092;-58
2022/05/16 03:53:55;;;;;;;8.52;4.68;;;15.90;75.00;;;;;;4992435;28;20483;-56
2022/05/16 03:56:23;;;;;;;5.10;4.60;;;15.90;75.20;;;;;;4991765;28;20132;-60
2022/05/16 03:58:49;;;;;;;10.32;5.47;;;15.90;75.20;;;;;;4991967;28;20161;-59
2022/05/16 04:01:15;;;;;;;6.85;4.78;;;15.90;75.60;;;;;;4991531;28;20129;-61
2022/05/16 04:03:41;;;;;;;5.70;4.72;;;15.90;75.90;;;;;;4987194;28;20037;-59
2022/05/16 04:06:07;;;;;;;10.10;4.72;;;15.90;76.90;;;;;;4990705;28;20034;-60
2022/05/16 04:08:34;;;;;;;10.38;4.90;;;16.00;77.10;;;;;;4990386;28;20060;-60
2022/05/16 04:11:00;;;;;;;7.03;4.50;;;16.00;76.50;;;;;;4991507;28;20038;-60
2022/05/16 04:13:26;;;;;;;8.90;4.97;;;16.00;76.70;;;;;;4992019;28;20383;-61
2022/05/16 04:15:52;;;;;;;7.70;4.80;;;16.00;76.90;;;;;;4992738;28;20042;-58
2022/05/16 04:18:18;;;;;;;8.27;5.18;;;16.00;77.30;;;;;;4991765;28;20070;-60
2022/05/16 04:20:43;;;;;;;7.38;4.93;;;15.90;77.30;;;;;;4991410;28;20525;-60
2022/05/16 04:23:09;;;;;;;7.07;4.50;;;15.90;77.60;;;;;;4990139;28;20406;-61
2022/05/16 04:25:37;;;;;;;8.80;5.03;;;15.90;77.70;;;;;;4990582;28;20034;-61
2022/05/16 04:28:04;;;;;;;7.38;5.07;;;16.00;76.80;;;;;;4992546;28;20031;-61
2022/05/16 04:30:30;;;;;;;12.10;5.03;;;16.00;76.30;;;;;;4992463;28;20038;-61
2022/05/16 04:32:59;;;;;;;7.15;5.18;;;16.00;76.30;;;;;;4992210;28;20042;-60
2022/05/16 04:35:42;;;;;;;5.97;5.00;;;16.00;76.10;;;;;;4990307;28;20081;-63
2022/05/16 04:38:08;;;;;;;9.82;4.72;;;16.00;75.30;;;;;;4992590;28;20042;-59
2022/05/16 04:40:34;;;;;;;7.82;5.10;;;15.90;75.30;;;;;;4992391;28;20107;-60
2022/05/16 04:43:00;;;;;;;9.60;5.30;;;15.90;75.50;;;;;;4992308;28;20049;-61
2022/05/16 04:45:29;;;;;;;11.13;6.00;;;16.00;75.60;;;;;;4990518;28;20034;-59
2022/05/16 04:47:57;;;;;;;11.60;6.40;;;16.10;75.40;;;;;;4992532;28;20441;-57
2022/05/16 04:50:32;;;;;;;10.23;6.10;;;16.10;75.10;;;;;;4991623;28;20673;-59
2022/05/16 04:52:58;;;;;;;7.22;5.00;;;16.10;75.10;;;;;;4991606;28;20046;-60
2022/05/16 04:55:25;;;;;;;9.18;5.05;;;16.20;74.90;;;;;;4990963;28;20046;-60
2022/05/16 04:57:51;;;;;;;12.07;5.70;;;16.30;74.60;;;;;;4990540;28;20066;-60
2022/05/16 05:00:19;;;;;;;8.50;5.13;;;16.30;74.50;;;;;;4991854;28;20128;-61
2022/05/16 05:02:44;;;;;;;9.88;5.07;;;16.30;74.20;;;;;;4992115;28;20069;-62
2022/05/16 05:05:11;;;;;;;12.20;5.30;;;16.30;74.30;;;;;;4991157;28;20066;-59
2022/05/16 05:07:37;;;;;;;21.08;6.30;;;16.40;74.20;;;;;;4991435;28;20105;-63
2022/05/16 05:15:36;;;;;;;10.32;6.72;;;16.40;74.30;;;;;;4986711;28;20030;-61
2022/05/16 05:18:02;;;;;;;10.20;6.93;;;16.50;74.00;;;;;;4979195;28;20038;-57
2022/05/16 05:20:28;;;;;;;10.45;5.68;;;16.60;73.80;;;;;;4994573;28;20102;-59
2022/05/16 05:22:54;;;;;;;7.07;5.22;;;16.70;73.70;;;;;;4992253;28;20747;-58
2022/05/16 05:25:20;;;;;;;12.35;4.95;;;16.80;73.80;;;;;;4994542;28;20502;-57
2022/05/16 05:27:48;;;;;;;8.00;5.35;;;16.90;73.00;;;;;;4994682;28;20026;-60
2022/05/16 05:30:18;;;;;;;12.13;5.30;;;16.90;73.80;;;;;;4995108;28;20041;-57
2022/05/16 05:32:44;;;;;;;7.97;5.00;;;17.00;73.90;;;;;;4994156;28;20035;-59
2022/05/16 05:35:10;;;;;;;7.78;4.85;;;17.10;73.50;;;;;;4994568;28;20042;-59
2022/05/16 05:37:36;;;;;;;9.45;5.43;;;17.30;73.10;;;;;;4995004;28;20458;-56
2022/05/16 05:40:04;;;;;;;8.27;4.95;;;17.40;73.10;;;;;;4992526;28;20046;-55
2022/05/16 05:42:31;;;;;;;11.55;5.22;;;17.50;72.50;;;;;;4992969;28;20061;-58
2022/05/16 05:44:58;;;;;;;14.98;6.15;;;17.60;72.10;;;;;;4994943;28;20517;-58
2022/05/16 05:47:24;;;;;;;9.38;5.88;;;17.70;72.40;;;;;;4992667;28;20062;-58
2022/05/16 05:49:50;;;;;;;11.85;6.00;;;17.70;72.20;;;;;;4994152;28;20444;-59
2022/05/16 05:52:15;;;;;;;9.57;5.70;;;17.70;72.00;;;;;;4995850;28;20054;-57
2022/05/16 05:54:42;;;;;;;16.30;6.20;;;17.70;72.30;;;;;;4996129;28;20073;-55
2022/05/16 05:57:08;;;;;;;11.13;5.35;;;17.70;72.40;;;;;;4993535;28;20041;-58
2022/05/16 05:59:34;;;;;;;14.85;6.50;;;17.80;72.30;;;;;;4994942;28;20026;-59
2022/05/16 06:01:59;;;;;;;8.68;5.78;;;17.80;72.50;;;;;;4995097;28;20038;-59
2022/05/16 06:04:25;;;;;;;16.58;6.38;;;17.90;72.70;;;;;;4994381;28;20026;-58
2022/05/16 06:06:51;;;;;;;12.02;6.10;;;17.80;73.00;;;;;;4993602;28;20045;-60
2022/05/16 06:09:16;;;;;;;9.15;5.78;;;17.90;72.70;;;;;;4990253;28;20036;-60
2022/05/16 06:11:42;;;;;;;12.30;5.80;;;17.90;72.70;;;;;;4994683;28;20042;-57
2022/05/16 06:14:07;;;;;;;8.90;5.18;;;17.90;72.80;;;;;;4995476;28;20054;-57
2022/05/16 06:16:33;;;;;;;9.25;5.10;;;17.80;73.50;;;;;;4994312;28;20034;-55
2022/05/16 06:18:58;;;;;;;9.27;5.53;;;17.70;73.90;;;;;;4994503;28;20034;-60
2022/05/16 06:21:24;;;;;;;7.88;5.45;;;17.70;73.80;;;;;;4994958;28;20026;-57
2022/05/16 06:23:50;;;;;;;11.20;5.30;;;17.70;73.90;;;;;;4994524;28;20725;-57
2022/05/16 06:26:16;;;;;;;15.43;5.50;;;17.70;73.90;;;;;;4994222;28;20085;-55
2022/05/16 06:28:41;;;;;;;20.33;6.20;;;17.70;73.80;;;;;;4993772;28;20022;-54
2022/05/16 06:31:07;;;;;;;13.32;7.45;;;17.70;74.20;;;;;;4993581;28;20049;-60
2022/05/16 06:33:34;;;;;;;12.55;6.72;;;17.70;74.30;;;;;;4994332;28;20031;-56
2022/05/16 06:36:00;;;;;;;10.18;5.93;;;17.80;74.00;;;;;;4992986;28;20062;-59
2022/05/16 06:38:31;;;;;;;8.13;5.05;;;17.80;73.80;;;;;;4993982;28;20112;-56
2022/05/16 06:40:58;;;;;;;8.80;6.18;;;17.90;73.90;;;;;;4992056;28;20069;-54
2022/05/16 06:43:25;;;;;;;8.90;6.38;;;18.10;73.90;;;;;;4993814;28;20026;-60
2022/05/16 06:45:51;;;;;;;9.40;6.50;;;18.30;73.50;;;;;;4992090;28;20038;-59
2022/05/16 06:48:17;;;;;;;12.05;6.25;;;18.50;73.20;;;;;;4994356;28;20378;-56
2022/05/16 06:50:45;;;;;;;11.95;6.00;;;18.60;73.10;;;;;;4993241;28;20027;-57
2022/05/16 06:53:13;;;;;;;12.20;5.65;;;18.70;73.10;;;;;;4993624;28;20022;-56
2022/05/16 06:55:39;;;;;;;19.80;6.10;;;18.70;73.40;;;;;;4993207;28;20030;-59
2022/05/16 06:58:05;;;;;;;19.35;6.63;;;18.80;73.30;;;;;;4994434;28;20113;-56
2022/05/16 07:00:30;;;;;;;16.20;5.80;;;18.90;72.90;;;;;;4993277;28;20030;-58
2022/05/16 07:02:56;;;;;;;15.35;5.47;;;19.10;72.40;;;;;;4992427;28;20030;-60
2022/05/16 07:05:21;;;;;;;33.60;8.45;;;19.20;72.30;;;;;;4993465;28;20084;-59
2022/05/16 07:07:47;;;;;;;11.82;6.10;;;19.30;72.30;;;;;;4991772;28;20062;-58
2022/05/16 07:10:13;;;;;;;39.30;22.95;;;19.40;72.40;;;;;;4992050;28;20041;-59
2022/05/16 07:12:38;;;;;;;16.55;9.63;;;19.50;72.40;;;;;;4993021;28;20317;-60
2022/05/16 07:15:05;;;;;;;10.63;7.03;;;19.60;72.10;;;;;;4992009;28;20104;-59
2022/05/16 07:17:30;;;;;;;14.98;6.70;;;19.70;71.90;;;;;;4992809;28;20145;-58
2022/05/16 07:19:56;;;;;;;13.82;7.20;;;19.70;72.30;;;;;;4993770;28;20643;-60
2022/05/16 07:22:22;;;;;;;13.40;7.20;;;19.70;72.40;;;;;;4993530;28;20038;-58
2022/05/16 07:24:51;;;;;;;6.47;5.05;;;19.90;72.10;;;;;;4992645;28;20045;-58
2022/05/16 07:30:01;;;;;;;;;;;20.30;71.30;;;;;;4994001;28;20043;-61
2022/05/16 07:32:41;;;;;;;14.73;5.60;;;20.50;70.70;;;;;;4993744;28;19937;-60
2022/05/16 07:35:08;;;;;;;7.25;5.20;;;20.70;70.70;;;;;;4993024;28;20741;-59
2022/05/16 07:37:34;;;;;;;16.70;6.63;;;20.80;70.40;;;;;;4993225;28;20085;-60
2022/05/16 07:39:59;;;;;;;10.27;5.78;;;20.80;70.00;;;;;;4991599;28;20088;-59
2022/05/16 07:42:25;;;;;;;12.57;6.05;;;20.70;70.50;;;;;;4993027;28;20034;-60
2022/05/16 07:44:50;;;;;;;10.75;5.63;;;20.70;70.60;;;;;;4975559;28;20550;-58
2022/05/16 07:47:17;;;;;;;14.00;5.65;;;20.50;70.80;;;;;;4992828;28;20022;-59
2022/05/16 07:49:42;;;;;;;6.97;4.45;;;20.40;72.00;;;;;;4991360;28;20557;-57
2022/05/16 07:52:09;;;;;;;14.15;4.95;;;20.50;71.30;;;;;;4991207;28;20031;-59
2022/05/16 07:54:37;;;;;;;11.23;4.78;;;20.60;71.20;;;;;;4991579;28;20034;-57
2022/05/16 07:57:04;;;;;;;10.15;5.03;;;20.70;70.80;;;;;;4993445;28;20029;-60
2022/05/16 07:59:30;;;;;;;10.38;5.13;;;20.90;70.30;;;;;;4994830;28;20398;-59
2022/05/16 08:01:55;;;;;;;12.80;5.55;;;21.00;70.40;;;;;;4992442;28;20050;-59
2022/05/16 08:04:23;;;;;;;11.25;5.13;;;21.10;70.40;;;;;;4990012;28;20030;-58
2022/05/16 08:06:49;;;;;;;9.80;5.30;;;21.20;70.30;;;;;;4990385;28;20034;-58
2022/05/16 08:11:59;;;;;;;9.18;4.63;;;21.30;69.90;;;;;;4990722;28;20045;-60
2022/05/16 08:14:24;;;;;;;11.77;4.72;;;21.40;70.00;;;;;;4992979;28;20034;-57
2022/05/16 08:16:50;;;;;;;8.30;4.78;;;21.40;69.60;;;;;;4992049;28;20034;-57
2022/05/16 08:19:16;;;;;;;15.55;5.93;;;21.40;70.00;;;;;;4992657;28;20038;-59
2022/05/16 08:21:42;;;;;;;10.25;5.03;;;21.40;70.30;;;;;;4992304;28;20038;-57
2022/05/16 08:24:09;;;;;;;12.45;4.93;;;21.50;69.70;;;;;;4992035;28;20034;-56
2022/05/16 08:26:35;;;;;;;9.32;4.82;;;21.60;69.80;;;;;;4991351;28;20482;-60
2022/05/16 08:29:02;;;;;;;9.32;4.68;;;21.60;70.00;;;;;;4991814;28;20066;-60
2022/05/16 08:31:28;;;;;;;9.65;5.38;;;21.70;69.90;;;;;;4993021;28;20022;-60
2022/05/16 08:33:56;;;;;;;12.90;4.97;;;21.80;69.70;;;;;;4991310;28;20042;-59
2022/05/16 08:41:54;;;;;;;11.60;5.35;;;22.20;69.80;;;;;;4987415;28;19917;-59
2022/05/16 08:44:42;;;;;;;13.18;5.57;;;22.10;69.80;;;;;;4992083;28;20045;-60
2022/05/16 08:47:16;;;;;;;12.63;4.57;;;22.30;69.70;;;;;;4992541;28;20124;-60
2022/05/16 08:49:53;;;;;;;11.63;4.97;;;22.40;69.00;;;;;;4992489;28;20035;-60
2022/05/16 08:52:40;;;;;;;8.43;4.78;;;22.50;69.00;;;;;;4994341;28;20031;-59
2022/05/16 08:55:30;;;;;;;7.68;4.00;;;22.70;68.90;;;;;;4994671;28;20034;-57
2022/05/16 08:58:09;;;;;;;12.25;4.63;;;22.80;68.70;;;;;;4996661;28;20035;-57
2022/05/16 09:00:47;;;;;;;10.60;4.88;;;23.00;68.60;;;;;;4995520;28;20027;-58
2022/05/16 09:03:18;;;;;;;12.20;5.00;;;22.90;68.20;;;;;;4995207;28;20641;-56
2022/05/16 09:05:59;;;;;;;10.52;4.68;;;23.00;68.20;;;;;;4995437;28;20038;-60
2022/05/16 09:08:46;;;;;;;7.93;4.47;;;23.10;68.30;;;;;;4996315;28;20031;-58
2022/05/16 09:11:44;;;;;;;9.43;4.70;;;23.30;67.90;;;;;;4994988;28;20038;-60
2022/05/16 09:14:39;;;;;;;17.10;5.97;;;23.40;67.10;;;;;;4979128;28;20097;-58
2022/05/16 09:17:19;;;;;;;11.77;6.15;;;23.60;67.10;;;;;;4971097;28;20109;-58
2022/05/16 09:19:44;;;;;;;9.13;5.25;;;23.50;67.30;;;;;;5005661;28;20033;-58
2022/05/16 09:22:20;;;;;;;12.30;5.13;;;23.60;67.40;;;;;;5006464;28;20022;-58
2022/05/16 09:24:54;;;;;;;9.93;5.03;;;23.70;66.90;;;;;;5006024;28;20630;-59
2022/05/16 09:30:26;;;;;;;;;;;23.70;66.30;;;;;;4987051;28;20043;-60
2022/05/16 09:33:00;;;;;;;13.77;5.80;;;23.70;66.30;;;;;;5006083;28;20016;-60
2022/05/16 09:35:42;;;;;;;9.68;4.82;;;23.80;66.60;;;;;;5002117;28;20101;-59
2022/05/16 09:38:08;;;;;;;12.30;6.00;;;23.90;66.10;;;;;;5003562;28;20027;-60
2022/05/16 09:40:37;;;;;;;17.92;6.28;;;23.80;65.60;;;;;;5002921;28;20026;-60
2022/05/16 09:43:16;;;;;;;10.48;5.05;;;23.80;66.10;;;;;;5002599;28;20481;-60
2022/05/16 09:45:49;;;;;;;12.30;5.57;;;24.10;65.90;;;;;;5001798;28;20110;-61
2022/05/16 09:48:18;;;;;;;14.05;5.97;;;24.20;65.80;;;;;;5006171;28;20027;-60
2022/05/16 09:51:15;;;;;;;14.13;5.65;;;24.30;65.10;;;;;;5005112;28;20030;-60
2022/05/16 09:53:43;;;;;;;11.00;5.43;;;24.20;65.40;;;;;;5002669;28;20438;-59
2022/05/16 09:56:30;;;;;;;11.45;5.40;;;24.20;65.60;;;;;;4999445;28;20382;-61
2022/05/16 09:59:01;;;;;;;11.48;5.40;;;24.40;65.40;;;;;;5000146;28;20037;-59
2022/05/16 10:01:50;;;;;;;14.23;5.38;;;24.60;64.70;;;;;;4992708;28;20041;-60
2022/05/16 10:04:19;;;;;;;13.07;5.05;;;24.90;64.20;;;;;;4988046;28;20030;-59
2022/05/16 10:07:03;;;;;;;16.95;5.60;;;24.80;64.00;;;;;;4992896;28;20068;-58
2022/05/16 10:09:44;;;;;;;14.48;6.10;;;25.00;64.00;;;;;;4975309;28;20031;-58
2022/05/16 10:12:12;;;;;;;20.88;5.72;;;24.90;63.90;;;;;;4994278;28;20045;-57
2022/05/16 10:14:39;;;;;;;12.38;5.43;;;24.90;64.20;;;;;;4995720;28;20084;-56
2022/05/16 10:17:07;;;;;;;8.18;4.88;;;24.90;63.60;;;;;;4995110;28;20081;-57
2022/05/16 10:19:35;;;;;;;15.85;5.60;;;25.00;63.40;;;;;;4995648;28;20042;-57
2022/05/16 10:22:17;;;;;;;11.80;5.55;;;25.10;62.40;;;;;;4995534;28;20045;-58
2022/05/16 10:24:52;;;;;;;11.15;5.35;;;25.30;60.90;;;;;;4995788;28;20034;-60
2022/05/16 10:27:24;;;;;;;19.17;6.45;;;25.50;60.30;;;;;;4994668;28;20053;-59
2022/05/16 10:29:54;;;;;;;13.98;5.20;;;25.50;60.20;;;;;;4994385;28;20046;-60
2022/05/16 10:35:29;;;;;;;8.18;5.10;;;25.80;59.90;;;;;;4994669;28;20030;-59
2022/05/16 10:37:58;;;;;;;12.20;4.88;;;25.80;59.70;;;;;;4995326;28;20034;-60
2022/05/16 10:40:38;;;;;;;15.88;5.20;;;26.10;59.50;;;;;;4993993;28;20465;-57
2022/05/16 10:43:40;;;;;;;10.85;4.40;;;26.20;58.50;;;;;;4984278;28;20026;-56
2022/05/16 10:46:13;;;;;;;11.02;5.20;;;26.20;57.90;;;;;;4970310;28;20402;-58
2022/05/16 10:48:53;;;;;;;11.23;5.00;;;26.10;58.20;;;;;;4993825;28;20037;-59
2022/05/16 10:51:47;;;;;;;12.82;5.28;;;26.00;58.40;;;;;;4992746;28;20439;-59
2022/05/16 10:54:18;;;;;;;13.00;4.88;;;25.90;58.80;;;;;;4994033;28;20035;-58
2022/05/16 10:56:53;;;;;;;15.52;5.40;;;26.00;58.90;;;;;;4992804;28;20459;-59
2022/05/16 10:59:31;;;;;;;9.68;4.75;;;26.00;58.00;;;;;;4994500;28;20042;-58
2022/05/16 11:02:23;;;;;;;15.15;6.20;;;26.00;57.50;;;;;;4993585;28;20113;-59
2022/05/16 11:05:07;;;;;;;11.95;4.80;;;26.10;57.90;;;;;;4993762;28;20057;-59
2022/05/16 11:07:38;;;;;;;11.02;4.90;;;26.20;57.80;;;;;;4995101;28;20049;-57
2022/05/16 11:10:10;;;;;;;11.95;5.00;;;26.40;57.50;;;;;;4994746;28;20520;-59
2022/05/16 11:12:54;;;;;;;20.52;6.40;;;26.60;57.20;;;;;;4992247;28;20054;-58
2022/05/16 11:15:26;;;;;;;8.98;5.32;;;26.60;57.60;;;;;;4974328;28;20042;-59
2022/05/16 11:17:59;;;;;;;12.88;5.43;;;26.60;57.50;;;;;;4981458;28;20373;-58
2022/05/16 11:20:36;;;;;;;12.00;5.60;;;26.80;57.60;;;;;;4993440;28;20041;-57
2022/05/16 11:23:26;;;;;;;12.40;5.60;;;26.60;57.30;;;;;;4993104;28;20109;-58
2022/05/16 11:26:06;;;;;;;9.65;5.13;;;26.60;57.40;;;;;;4993337;28;20030;-59
2022/05/16 11:29:16;;;;;;;7.97;4.88;;;26.40;58.00;;;;;;4993437;28;20034;-58
2022/05/16 11:31:29;;;;;;;18.40;6.15;;;26.50;58.10;;;;;;4993619;28;20038;-55
2022/05/16 11:33:55;;;;;;;12.30;5.07;;;26.40;58.30;;;;;;4993777;28;20030;-59
2022/05/16 11:36:35;;;;;;;11.05;4.88;;;26.20;58.70;;;;;;4992058;28;20030;-58
2022/05/16 11:39:03;;;;;;;9.57;4.78;;;26.30;58.80;;;;;;4992584;28;20027;-58
2022/05/16 11:41:44;;;;;;;9.30;4.80;;;26.30;58.70;;;;;;4992691;28;20096;-59
2022/05/16 11:44:31;;;;;;;9.43;5.10;;;26.40;59.00;;;;;;4974092;28;20498;-58
2022/05/16 11:47:11;;;;;;;14.43;5.20;;;26.60;58.90;;;;;;4987535;28;20033;-60
2022/05/16 11:49:52;;;;;;;13.52;5.78;;;26.80;59.20;;;;;;4993202;28;20034;-59
2022/05/16 11:52:34;;;;;;;13.63;5.10;;;26.90;58.60;;;;;;4991703;28;20082;-59
2022/05/16 11:55:04;;;;;;;14.75;5.45;;;26.90;58.70;;;;;;4992861;28;20041;-57
2022/05/16 12:03:09;;;;;;;10.18;6.00;;;26.80;58.90;;;;;;4992701;28;20062;-60
2022/05/16 12:05:43;;;;;;;7.72;5.43;;;26.80;59.00;;;;;;4992022;28;20041;-60
2022/05/16 12:08:28;;;;;;;;;;;26.90;59.20;;;;;;4992283;28;20434;-59
2022/05/16 12:11:16;;;;;;;8.60;4.97;;;27.00;59.20;;;;;;4974892;28;20028;-58
2022/05/16 12:14:07;;;;;;;7.05;4.72;;;27.10;59.30;;;;;;4990128;28;20030;-58
2022/05/16 12:16:51;;;;;;;10.45;5.15;;;27.30;59.40;;;;;;4992636;28;20030;-59
2022/05/16 12:19:25;;;;;;;10.65;5.20;;;27.20;58.70;;;;;;4992939;28;20038;-60
2022/05/16 12:22:05;;;;;;;10.88;5.72;;;27.40;59.10;;;;;;4993767;28;20030;-61
2022/05/16 12:24:41;;;;;;;9.88;5.70;;;27.50;58.80;;;;;;4992719;28;20038;-59
2022/05/16 12:27:09;;;;;;;15.95;5.30;;;27.50;58.60;;;;;;4992173;28;20038;-59
2022/05/16 12:29:39;;;;;;;10.80;5.93;;;27.60;58.60;;;;;;4991891;28;20130;-60
2022/05/16 12:32:04;;;;;;;9.88;5.22;;;27.60;58.90;;;;;;4992421;28;20057;-59
2022/05/16 12:34:31;;;;;;;6.32;4.63;;;27.50;59.20;;;;;;4993226;28;20030;-58
2022/05/16 12:36:59;;;;;;;7.00;5.25;;;27.50;59.40;;;;;;4992467;28;20030;-60
2022/05/16 12:39:38;;;;;;;9.18;5.68;;;27.50;59.40;;;;;;4991489;28;20102;-57
2022/05/16 12:42:54;;;;;;;12.50;6.20;;;27.30;59.30;;;;;;4992626;28;20054;-57
2022/05/16 12:45:43;;;;;;;10.25;4.80;;;27.30;59.40;;;;;;4932839;29;20078;-61
2022/05/16 12:48:27;;;;;;;10.32;5.15;;;27.20;59.70;;;;;;4990228;28;20506;-60
2022/05/16 12:51:11;;;;;;;10.90;5.07;;;27.20;59.80;;;;;;4993057;28;20113;-60
2022/05/16 12:53:43;;;;;;;;;;;27.10;60.10;;;;;;4989192;28;20475;-57
2022/05/16 12:56:41;;;;;;;12.75;5.53;;;27.10;59.90;;;;;;4993967;28;19955;-61
2022/05/16 12:59:32;;;;;;;13.05;7.53;;;26.90;60.10;;;;;;4991217;28;20039;-58
2022/05/16 13:01:58;;;;;;;21.40;8.50;;;26.80;60.30;;;;;;4992905;28;20038;-57
2022/05/16 13:04:49;;;;;;;13.48;6.07;;;26.70;60.80;;;;;;4994680;28;20104;-57
2022/05/16 13:07:52;;;;;;;12.77;7.03;;;26.60;61.10;;;;;;4993052;28;20062;-57
2022/05/16 13:10:29;;;;;;;28.73;7.65;;;26.50;61.20;;;;;;4993248;28;20417;-60
2022/05/16 13:13:33;;;;;;;19.95;6.97;;;26.20;66.40;;;;;;4991510;28;20386;-59
2022/05/16 13:16:04;;;;;;;14.48;6.35;;;25.20;69.90;;;;;;4974980;28;20034;-59
2022/05/16 13:18:33;;;;;;;14.43;6.68;;;24.90;71.60;;;;;;4991615;28;20057;-58
2022/05/16 13:21:06;;;;;;;17.52;6.78;;;24.60;72.90;;;;;;4992443;28;20041;-56
2022/05/16 13:23:31;;;;;;;17.23;6.53;;;24.50;73.20;;;;;;4992939;28;20038;-56
2022/05/16 13:31:43;;;;;;;17.05;5.88;;;24.40;71.80;;;;;;4992309;28;20105;-58
2022/05/16 13:34:13;;;;;;;10.77;5.80;;;24.00;72.30;;;;;;4991057;28;20026;-57
2022/05/16 13:36:50;;;;;;;10.90;5.85;;;23.70;73.30;;;;;;4994183;28;20073;-59
2022/05/16 13:39:16;;;;;;;12.38;5.35;;;23.80;72.80;;;;;;4994335;28;20049;-58
2022/05/16 13:41:42;;;;;;;11.85;5.13;;;23.70;73.10;;;;;;4994889;28;20034;-58
2022/05/16 13:44:12;;;;;;;12.23;5.15;;;23.70;73.60;;;;;;4995471;28;20045;-58
2022/05/16 13:46:38;;;;;;;9.15;5.18;;;23.60;74.10;;;;;;4995365;28;20402;-58